createdAt,value
2019-03-13T00:01:31.767Z,8.70
2019-03-13T00:04:36.793Z,8.60
2019-03-13T00:07:41.880Z,8.60
2019-03-13T00:10:46.992Z,8.60
2019-03-13T00:13:52.114Z,8.50
2019-03-13T00:16:57.221Z,8.50
2019-03-13T00:20:02.328Z,8.50
2019-03-13T00:23:07.430Z,8.50
2019-03-13T00:26:12.540Z,8.50
2019-03-13T00:29:17.736Z,8.50
2019-03-13T00:32:22.856Z,8.60
2019-03-13T00:35:27.916Z,8.70
2019-03-13T00:38:32.867Z,8.70
2019-03-13T00:41:37.915Z,8.80
2019-03-13T00:44:43.006Z,8.90
2019-03-13T00:47:48.122Z,9.00
2019-03-13T00:50:53.224Z,9.00
2019-03-13T00:53:58.343Z,9.10
2019-03-13T00:57:03.433Z,9.10
2019-03-13T01:00:08.685Z,9.20
2019-03-13T01:03:35.856Z,9.20
2019-03-13T01:06:43.554Z,9.20
2019-03-13T01:09:49.067Z,9.20
2019-03-13T01:12:54.187Z,9.30
2019-03-13T01:15:59.340Z,9.30
2019-03-13T01:19:04.458Z,9.30
2019-03-13T01:22:09.560Z,9.30
2019-03-13T01:25:16.127Z,9.30
2019-03-13T01:28:21.078Z,9.30
2019-03-13T01:31:35.779Z,9.30
2019-03-13T01:34:44.230Z,9.20
2019-03-13T01:37:49.366Z,9.20
2019-03-13T01:40:54.462Z,9.20
2019-03-13T01:43:59.557Z,9.20
2019-03-13T01:47:04.722Z,9.10
2019-03-13T01:50:10.003Z,9.20
2019-03-13T01:53:15.039Z,9.20
2019-03-13T01:56:20.091Z,9.20
2019-03-13T01:59:25.112Z,9.20
2019-03-13T02:02:30.151Z,9.20
2019-03-13T02:05:35.170Z,9.30
2019-03-13T02:08:40.259Z,9.30
2019-03-13T02:11:45.379Z,9.20
2019-03-13T02:14:50.407Z,9.00
2019-03-13T02:17:55.490Z,8.70
2019-03-13T02:21:00.586Z,7.90
2019-03-13T02:24:05.696Z,7.20
2019-03-13T02:27:10.799Z,6.90
2019-03-13T02:30:15.948Z,6.80
2019-03-13T02:33:21.070Z,6.80
2019-03-13T02:36:26.117Z,6.80
2019-03-13T02:39:31.203Z,6.80
2019-03-13T02:42:36.159Z,6.80
2019-03-13T02:45:41.278Z,6.70
2019-03-13T02:48:46.383Z,6.50
2019-03-13T02:51:51.469Z,6.20
2019-03-13T02:54:56.592Z,6.00
2019-03-13T02:58:01.684Z,5.90
2019-03-13T03:01:38.107Z,5.90
2019-03-13T03:04:43.206Z,5.90
2019-03-13T03:07:48.216Z,5.90
2019-03-13T03:10:53.263Z,5.90
2019-03-13T03:13:58.215Z,5.80
2019-03-13T03:17:03.298Z,5.70
2019-03-13T03:20:10.844Z,5.60
2019-03-13T03:23:15.935Z,5.60
2019-03-13T03:26:20.968Z,5.60
2019-03-13T03:29:25.957Z,5.50
2019-03-13T03:32:30.996Z,5.50
2019-03-13T03:35:36.181Z,5.50
2019-03-13T03:38:41.357Z,5.50
2019-03-13T03:41:46.556Z,5.50
2019-03-13T03:44:51.555Z,5.60
2019-03-13T03:47:56.644Z,5.60
2019-03-13T03:51:01.749Z,5.60
2019-03-13T03:54:06.850Z,5.50
2019-03-13T03:57:11.892Z,5.50
2019-03-13T04:00:17.174Z,5.40
2019-03-13T04:03:22.635Z,5.30
2019-03-13T04:06:27.647Z,5.20
2019-03-13T04:09:32.596Z,5.10
2019-03-13T04:12:37.621Z,5.10
2019-03-13T04:15:42.791Z,5.10
2019-03-13T04:18:47.766Z,5.00
2019-03-13T04:21:52.999Z,5.00
2019-03-13T04:25:15.196Z,5.00
2019-03-13T04:28:20.295Z,4.90
2019-03-13T04:31:25.342Z,4.90
2019-03-13T04:34:30.382Z,4.90
2019-03-13T04:37:35.431Z,4.90
2019-03-13T04:40:40.543Z,4.80
2019-03-13T04:43:45.632Z,4.80
2019-03-13T04:46:50.671Z,4.80
2019-03-13T04:49:55.628Z,4.80
2019-03-13T04:53:00.669Z,4.80
2019-03-13T04:56:05.702Z,4.80
2019-03-13T04:59:10.790Z,4.80
2019-03-13T05:02:16.130Z,4.80
2019-03-13T05:05:57.061Z,4.90
2019-03-13T05:09:13.433Z,4.90
2019-03-13T05:12:18.459Z,4.90
2019-03-13T05:15:23.482Z,4.90
2019-03-13T05:18:28.505Z,5.00
2019-03-13T05:21:33.805Z,5.10
2019-03-13T05:24:39.025Z,5.20
2019-03-13T05:27:44.673Z,5.30
2019-03-13T05:30:52.891Z,5.40
2019-03-13T05:33:56.638Z,5.50
2019-03-13T05:37:01.832Z,5.50
2019-03-13T05:40:07.128Z,5.50
2019-03-13T05:43:12.538Z,5.50
2019-03-13T05:46:17.999Z,5.50
2019-03-13T05:49:23.354Z,5.50
2019-03-13T05:52:28.363Z,5.50
2019-03-13T05:55:33.569Z,5.50
2019-03-13T05:58:38.587Z,5.60
2019-03-13T06:01:43.610Z,5.70
2019-03-13T06:04:48.663Z,5.70
2019-03-13T06:07:53.760Z,5.60
2019-03-13T06:10:58.969Z,5.70
2019-03-13T06:14:04.155Z,5.60
2019-03-13T06:17:09.632Z,5.50
2019-03-13T06:20:15.759Z,5.50
2019-03-13T06:23:21.318Z,5.40
2019-03-13T06:26:28.335Z,5.40
2019-03-13T06:29:33.368Z,5.50
2019-03-13T06:32:38.398Z,5.60
2019-03-13T06:35:43.522Z,5.70
2019-03-13T06:38:48.648Z,5.90
2019-03-13T06:41:53.683Z,5.90
2019-03-13T06:44:58.823Z,6.00
2019-03-13T06:48:03.975Z,6.10
2019-03-13T06:51:10.818Z,6.20
2019-03-13T06:54:15.850Z,6.30
2019-03-13T06:57:21.012Z,6.40
2019-03-13T07:00:52.079Z,6.50
2019-03-13T07:04:13.452Z,6.60
2019-03-13T07:07:43.454Z,6.70
2019-03-13T07:11:07.544Z,6.80
2019-03-13T07:14:30.406Z,6.80
2019-03-13T07:17:39.854Z,6.80
2019-03-13T07:20:58.628Z,6.80
2019-03-13T07:24:19.210Z,6.80
2019-03-13T07:27:42.258Z,6.70
2019-03-13T07:31:09.302Z,6.70
2019-03-13T07:34:26.977Z,6.80
2019-03-13T07:37:48.721Z,6.80
2019-03-13T07:41:11.538Z,6.90
2019-03-13T07:44:31.752Z,6.90
2019-03-13T07:48:04.631Z,6.90
2019-03-13T07:51:27.189Z,6.90
2019-03-13T07:54:50.164Z,7.00
2019-03-13T07:58:23.497Z,6.90
2019-03-13T08:01:53.630Z,7.00
2019-03-13T08:05:21.446Z,7.10
2019-03-13T08:08:51.699Z,7.00
2019-03-13T08:12:15.805Z,6.90
2019-03-13T08:15:38.726Z,6.80
2019-03-13T08:19:02.891Z,6.80
2019-03-13T08:22:32.955Z,7.10
2019-03-13T08:25:55.705Z,7.30
2019-03-13T08:29:18.403Z,7.30
2019-03-13T08:32:48.321Z,7.20
2019-03-13T08:36:06.308Z,7.20
2019-03-13T08:39:30.401Z,7.30
2019-03-13T08:42:54.591Z,7.30
2019-03-13T08:46:24.730Z,7.20
2019-03-13T08:49:54.769Z,7.30
2019-03-13T08:53:12.063Z,7.50
2019-03-13T08:56:45.248Z,7.70
2019-03-13T09:00:15.231Z,7.80
2019-03-13T09:03:27.582Z,7.90
2019-03-13T09:06:52.591Z,7.90
2019-03-13T09:10:22.968Z,7.80
2019-03-13T09:13:33.487Z,7.80
2019-03-13T09:16:51.727Z,7.90
2019-03-13T09:20:14.498Z,8.00
2019-03-13T09:23:27.725Z,8.00
2019-03-13T09:26:45.032Z,8.00
2019-03-13T09:30:08.136Z,8.10
2019-03-13T09:33:38.096Z,8.10
2019-03-13T09:37:01.491Z,8.10
2019-03-13T09:40:22.415Z,8.20
2019-03-13T09:43:40.151Z,8.30
2019-03-13T09:47:07.087Z,8.30
2019-03-13T09:50:37.358Z,8.30
2019-03-13T09:54:04.268Z,8.40
2019-03-13T09:57:27.258Z,8.50
2019-03-13T10:00:54.488Z,8.50
2019-03-13T10:04:11.111Z,8.60
2019-03-13T10:07:44.566Z,8.60
2019-03-13T10:11:04.606Z,8.80
2019-03-13T10:14:27.627Z,8.80
2019-03-13T10:17:57.784Z,8.80
2019-03-13T10:21:08.468Z,8.90
2019-03-13T10:24:38.607Z,9.00
2019-03-13T10:28:11.843Z,9.20
2019-03-13T10:31:27.759Z,9.20
2019-03-13T10:34:51.911Z,9.30
2019-03-13T10:38:14.161Z,9.40
2019-03-13T10:41:58.756Z,9.20
2019-03-13T10:45:09.156Z,8.90
2019-03-13T10:48:21.543Z,8.70
2019-03-13T10:51:44.345Z,8.50
2019-03-13T10:55:20.511Z,8.40
2019-03-13T10:58:45.180Z,8.60
2019-03-13T11:02:09.342Z,9.00
2019-03-13T11:05:37.347Z,9.20
2019-03-13T11:09:07.706Z,9.50
2019-03-13T11:12:20.478Z,9.50
2019-03-13T11:15:47.666Z,9.50
2019-03-13T11:18:58.935Z,9.40
2019-03-13T11:22:19.625Z,9.50
2019-03-13T11:25:31.142Z,9.40
2019-03-13T11:29:01.479Z,9.50
2019-03-13T11:32:18.278Z,9.80
2019-03-13T11:35:39.295Z,9.80
2019-03-13T11:39:12.323Z,9.60
2019-03-13T11:42:39.335Z,9.40
2019-03-13T11:46:09.623Z,9.40
2019-03-13T11:49:42.747Z,9.50
2019-03-13T11:53:12.904Z,9.60
2019-03-13T11:56:37.694Z,9.40
2019-03-13T11:59:50.811Z,9.30
2019-03-13T12:03:07.750Z,9.10
2019-03-13T12:06:22.705Z,8.90
2019-03-13T12:09:49.899Z,8.70
2019-03-13T12:13:23.091Z,8.70
2019-03-13T12:16:36.009Z,8.60
2019-03-13T12:19:56.621Z,8.60
2019-03-13T12:23:23.518Z,8.70
2019-03-13T12:26:53.466Z,8.80
2019-03-13T12:30:16.307Z,8.90
2019-03-13T12:33:46.712Z,8.90
2019-03-13T12:37:01.315Z,8.80
2019-03-13T12:40:24.445Z,8.90
2019-03-13T12:43:46.650Z,9.00
2019-03-13T12:47:22.912Z,9.10
2019-03-13T12:50:35.901Z,9.10
2019-03-13T12:53:49.347Z,9.10
2019-03-13T12:57:12.391Z,9.30
2019-03-13T13:00:42.783Z,9.40
2019-03-13T13:04:05.391Z,9.50
2019-03-13T13:07:29.387Z,9.60
2019-03-13T13:10:54.294Z,9.80
2019-03-13T13:14:18.474Z,9.90
2019-03-13T13:17:39.603Z,10.00
2019-03-13T13:20:44.655Z,10.00
2019-03-13T13:23:49.908Z,9.80
2019-03-13T13:26:55.070Z,9.70
2019-03-13T13:30:00.356Z,9.70
2019-03-13T13:33:05.510Z,9.60
2019-03-13T13:36:10.548Z,9.50
2019-03-13T13:39:15.635Z,9.40
2019-03-13T13:42:20.722Z,9.20
2019-03-13T13:45:45.888Z,9.10
2019-03-13T13:48:50.846Z,9.00
2019-03-13T13:51:55.923Z,9.00
2019-03-13T13:55:00.951Z,8.90
2019-03-13T13:58:06.068Z,8.60
2019-03-13T14:01:11.091Z,8.50
2019-03-13T14:04:16.191Z,8.50
2019-03-13T14:07:21.209Z,8.50
2019-03-13T14:10:26.220Z,8.50
2019-03-13T14:13:31.164Z,8.50
2019-03-13T14:16:36.256Z,8.60
2019-03-13T14:19:41.195Z,8.70
2019-03-13T14:22:46.134Z,8.80
2019-03-13T14:25:51.185Z,8.90
2019-03-13T14:28:56.179Z,9.00
2019-03-13T14:32:01.241Z,9.20
2019-03-13T14:35:06.410Z,9.20
2019-03-13T14:38:11.680Z,9.20
2019-03-13T14:41:16.700Z,9.20
2019-03-13T14:44:21.774Z,9.20
2019-03-13T14:47:26.869Z,9.20
2019-03-13T14:50:31.946Z,9.30
2019-03-13T14:53:37.316Z,9.50
2019-03-13T14:56:42.407Z,9.60
2019-03-13T14:59:47.431Z,9.70
2019-03-13T15:02:52.663Z,9.70
2019-03-13T15:05:57.667Z,9.60
2019-03-13T15:09:03.092Z,9.50
2019-03-13T15:12:14.243Z,9.40
2019-03-13T15:15:19.435Z,9.30
2019-03-13T15:18:24.547Z,9.30
2019-03-13T15:21:29.553Z,9.20
2019-03-13T15:24:34.571Z,9.20
2019-03-13T15:27:39.584Z,9.10
2019-03-13T15:30:44.691Z,9.00
2019-03-13T15:33:49.791Z,9.00
2019-03-13T15:36:54.748Z,9.00
2019-03-13T15:39:59.688Z,9.10
2019-03-13T15:43:04.775Z,9.20
2019-03-13T15:46:09.960Z,9.20
2019-03-13T15:49:14.978Z,9.30
2019-03-13T15:52:20.055Z,9.30
2019-03-13T15:55:25.163Z,9.30
2019-03-13T15:58:30.263Z,9.30
2019-03-13T16:01:35.340Z,9.20
2019-03-13T16:04:40.317Z,9.20
2019-03-13T16:07:45.411Z,9.00
2019-03-13T16:10:50.485Z,9.00
2019-03-13T16:13:55.434Z,9.00
2019-03-13T16:17:00.595Z,9.00
2019-03-13T16:20:06.207Z,9.00
2019-03-13T16:23:11.292Z,9.00
2019-03-13T16:26:16.454Z,9.10
2019-03-13T16:29:21.411Z,9.10
2019-03-13T16:32:26.430Z,9.00
2019-03-13T16:35:31.539Z,9.00
2019-03-13T16:38:36.485Z,8.90
2019-03-13T16:41:41.512Z,8.90
2019-03-13T16:44:46.599Z,8.80
2019-03-13T16:47:51.674Z,8.70
2019-03-13T16:50:56.638Z,8.60
2019-03-13T16:54:01.646Z,8.50
2019-03-13T16:57:06.815Z,8.40
2019-03-13T17:00:15.209Z,8.40
2019-03-13T17:03:20.218Z,8.30
2019-03-13T17:06:25.245Z,8.20
2019-03-13T17:09:30.351Z,8.10
2019-03-13T17:12:35.434Z,7.90
2019-03-13T17:15:40.451Z,7.80
2019-03-13T17:18:45.543Z,7.90
2019-03-13T17:21:50.635Z,7.80
2019-03-13T17:24:55.651Z,7.80
2019-03-13T17:28:00.772Z,7.70
2019-03-13T17:31:05.854Z,7.70
2019-03-13T17:34:10.892Z,7.60
2019-03-13T17:37:15.964Z,7.60
2019-03-13T17:40:22.728Z,7.60
2019-03-13T17:43:38.472Z,7.50
2019-03-13T17:46:34.618Z,7.40
2019-03-13T17:49:39.636Z,7.40
2019-03-13T17:52:45.263Z,7.40
2019-03-13T17:55:50.282Z,7.40
2019-03-13T17:58:55.417Z,7.50
2019-03-13T18:02:00.551Z,7.50
2019-03-13T18:05:06.083Z,7.50
2019-03-13T18:08:11.429Z,7.60
2019-03-13T18:11:16.622Z,7.60
2019-03-13T18:14:21.833Z,7.60
2019-03-13T18:17:26.951Z,7.50
2019-03-13T18:20:32.082Z,7.50
2019-03-13T18:23:37.351Z,7.50
2019-03-13T18:26:42.491Z,7.50
2019-03-13T18:29:47.731Z,7.60
2019-03-13T18:32:52.938Z,7.50
2019-03-13T18:35:58.102Z,7.50
2019-03-13T18:39:03.130Z,7.50
2019-03-13T18:42:08.238Z,7.50
2019-03-13T18:45:15.750Z,7.50
2019-03-13T18:48:20.848Z,7.50
2019-03-13T18:51:25.943Z,7.40
2019-03-13T18:54:31.023Z,7.30
2019-03-13T18:57:36.042Z,7.40
2019-03-13T19:00:41.360Z,7.40
2019-03-13T19:03:46.526Z,7.40
2019-03-13T19:06:51.758Z,7.30
2019-03-13T19:09:56.846Z,7.30
2019-03-13T19:13:01.929Z,7.30
2019-03-13T19:16:07.098Z,7.20
2019-03-13T19:19:12.156Z,7.10
2019-03-13T19:22:17.196Z,7.00
2019-03-13T19:25:22.386Z,7.00
2019-03-13T19:28:27.347Z,6.90
2019-03-13T19:31:32.390Z,6.90
2019-03-13T19:34:37.424Z,6.90
2019-03-13T19:37:42.515Z,6.90
2019-03-13T19:40:47.599Z,6.80
2019-03-13T19:43:52.627Z,6.70
2019-03-13T19:46:57.681Z,6.70
2019-03-13T19:50:02.970Z,6.60
2019-03-13T19:53:08.146Z,6.60
2019-03-13T19:56:13.236Z,6.60
2019-03-13T19:59:18.454Z,6.60
2019-03-13T20:02:23.560Z,6.60
2019-03-13T20:05:28.659Z,6.70
2019-03-13T20:08:33.682Z,6.70
2019-03-13T20:11:38.626Z,6.70
2019-03-13T20:14:43.771Z,6.70
2019-03-13T20:17:48.864Z,6.70
2019-03-13T20:20:54.065Z,6.60
2019-03-13T20:23:59.609Z,6.60
2019-03-13T20:27:04.974Z,6.60
2019-03-13T20:30:12.659Z,6.70
2019-03-13T20:33:18.117Z,6.60
2019-03-13T20:36:23.239Z,6.60
2019-03-13T20:39:28.265Z,6.60
2019-03-13T20:42:33.430Z,6.60
2019-03-13T20:45:38.601Z,6.60
2019-03-13T20:48:43.619Z,6.60
2019-03-13T20:51:48.766Z,6.60
2019-03-13T20:54:53.809Z,6.60
2019-03-13T20:57:59.116Z,6.60
2019-03-13T21:01:04.834Z,6.60
2019-03-13T21:04:09.859Z,6.70
2019-03-13T21:07:14.971Z,6.70
2019-03-13T21:10:20.017Z,6.60
2019-03-13T21:13:25.051Z,6.60
2019-03-13T21:16:30.062Z,6.50
2019-03-13T21:19:35.191Z,6.40
2019-03-13T21:22:40.290Z,6.40
2019-03-13T21:25:45.655Z,6.30
2019-03-13T21:28:50.937Z,6.30
2019-03-13T21:31:56.143Z,6.30
2019-03-13T21:35:01.378Z,6.30
2019-03-13T21:38:06.450Z,6.20
2019-03-13T21:41:11.811Z,6.10
2019-03-13T21:44:16.827Z,6.10
2019-03-13T21:47:21.929Z,6.10
2019-03-13T21:50:27.047Z,6.10
2019-03-13T21:53:32.283Z,6.10
2019-03-13T21:56:37.391Z,6.10
2019-03-13T21:59:42.423Z,6.10
2019-03-13T22:02:47.499Z,6.10
2019-03-13T22:05:52.600Z,6.10
2019-03-13T22:08:57.865Z,6.00
2019-03-13T22:12:04.619Z,5.90
2019-03-13T22:15:10.615Z,5.90
2019-03-13T22:18:15.718Z,5.90
2019-03-13T22:21:20.743Z,5.90
2019-03-13T22:24:25.823Z,5.90
2019-03-13T22:27:30.848Z,5.80
2019-03-13T22:30:35.959Z,5.80
2019-03-13T22:33:41.058Z,5.80
2019-03-13T22:36:46.142Z,5.80
2019-03-13T22:39:51.154Z,5.90
2019-03-13T22:42:56.260Z,5.80
2019-03-13T22:46:01.365Z,5.90
2019-03-13T22:49:06.352Z,5.90
2019-03-13T22:52:11.286Z,6.00
2019-03-13T22:55:16.390Z,6.10
2019-03-13T22:58:24.416Z,6.10
2019-03-13T23:01:29.563Z,6.10
2019-03-13T23:04:36.238Z,6.10
2019-03-13T23:07:41.408Z,6.10
2019-03-13T23:10:46.577Z,6.10
2019-03-13T23:13:51.695Z,5.90
2019-03-13T23:16:57.042Z,5.80
2019-03-13T23:20:02.363Z,5.80
2019-03-13T23:23:07.494Z,5.80
2019-03-13T23:26:12.603Z,5.80
2019-03-13T23:29:17.695Z,5.80
2019-03-13T23:32:22.861Z,5.80
2019-03-13T23:35:27.891Z,5.80
2019-03-13T23:38:32.923Z,5.80
2019-03-13T23:41:37.939Z,5.80
2019-03-13T23:44:42.936Z,5.80
2019-03-13T23:47:47.953Z,5.80
2019-03-13T23:50:52.956Z,5.80
2019-03-13T23:53:57.991Z,5.70
2019-03-13T23:57:02.934Z,5.70
